Sao Jorge, Brazil
Current Conditions -  °F | °C
As of 10:00 AM on Monday 20 Oct 2014 (Local Time) from SBPF Reporting Station
Clear Clear  
Wind Chill: 64°   Ceiling: Unl
Heat Index: 64°   Visibility: 6mi
Dew Point: 59°   Wind: 12mph
Humidity: 83%   Direction: 110°ESE
Pressure: 30.15"   Gusts: NA
Location:  28.5°S, 51.7°W
Report Text: SBPF 201300Z 11010KT CAVOK 18/15 Q1021
Loading
Personal Weather Stations






























Interactive Weather Map New forecast layout! Learn more

10-Day Weather Forecast

Advertisements
Track Severe Weather on mobile